Time;durP1;ratioP1;P1;durP2;ratioP2;P2;SDS_P1;SDS_P2;PMS_P1;PMS_P2;Temp;Humidity;BMP_temperature;BMP_pressure;BME280_temperature;BME280_humidity;BME280_pressure;Samples;Min_cycle;Max_cycle;Signal;HPM_P1;HPM_P2
2023/07/14 00:00:36;;;;;;;16.17;9.25;;;14.90;99.90;;;;;;5100739;27;20502;-68
2023/07/14 00:03:03;;;;;;;17.95;9.23;;;14.90;99.90;;;;;;5152412;27;20083;-68
2023/07/14 00:05:39;;;;;;;14.18;9.13;;;14.90;99.90;;;;;;5117418;27;20104;-69
2023/07/14 00:08:14;;;;;;;16.17;8.68;;;14.80;99.90;;;;;;5135739;27;20047;-68
2023/07/14 00:10:39;;;;;;;20.33;8.82;;;14.80;99.90;;;;;;5135645;27;20054;-70
2023/07/14 00:13:10;;;;;;;15.57;9.30;;;14.80;99.90;;;;;;5134819;27;20043;-69
2023/07/14 00:15:39;;;;;;;18.15;9.88;;;14.80;99.90;;;;;;5135763;27;20116;-70
2023/07/14 00:18:24;;;;;;;15.65;9.20;;;14.70;99.90;;;;;;5135539;27;20133;-69
2023/07/14 00:20:50;;;;;;;18.00;8.80;;;14.70;99.90;;;;;;5136253;27;20121;-69
2023/07/14 00:23:17;;;;;;;18.50;9.10;;;14.70;99.90;;;;;;5134377;27;20047;-68
2023/07/14 00:25:43;;;;;;;16.52;8.68;;;14.60;99.90;;;;;;5117224;27;20051;-68
2023/07/14 00:28:19;;;;;;;15.50;8.10;;;14.60;99.90;;;;;;5101054;27;20046;-70
2023/07/14 00:30:47;;;;;;;16.17;8.80;;;14.70;99.90;;;;;;5116993;27;20043;-70
2023/07/14 00:33:15;;;;;;;15.07;8.10;;;14.70;99.90;;;;;;5117917;27;20367;-70
2023/07/14 00:35:41;;;;;;;17.13;8.52;;;14.60;99.90;;;;;;5099660;27;20052;-70
2023/07/14 00:38:07;;;;;;;15.73;7.97;;;14.60;99.90;;;;;;5117938;27;20374;-69
2023/07/14 00:40:40;;;;;;;17.00;8.35;;;14.60;99.90;;;;;;5151265;27;20131;-69
2023/07/14 00:43:17;;;;;;;16.08;7.35;;;14.70;99.90;;;;;;5117146;27;20046;-69
2023/07/14 00:45:46;;;;;;;13.65;7.57;;;14.60;99.90;;;;;;5117188;27;20057;-69
2023/07/14 00:48:15;;;;;;;12.90;7.88;;;14.60;99.90;;;;;;5135552;27;20047;-69
2023/07/14 00:51:02;;;;;;;15.40;7.60;;;14.60;99.90;;;;;;5116826;27;20407;-69
2023/07/14 00:53:33;;;;;;;17.10;7.45;;;14.60;99.90;;;;;;5117178;27;20122;-69
2023/07/14 00:56:08;;;;;;;16.80;7.75;;;14.50;99.90;;;;;;5116477;27;20039;-69
2023/07/14 00:58:34;;;;;;;12.18;7.28;;;14.50;99.90;;;;;;5116711;27;20040;-68
2023/07/14 01:01:08;;;;;;;14.80;7.40;;;14.50;99.90;;;;;;5133400;27;20075;-69
2023/07/14 01:03:39;;;;;;;12.60;7.32;;;14.40;99.90;;;;;;5116088;27;20160;-68
2023/07/14 01:06:15;;;;;;;17.08;6.93;;;14.40;99.90;;;;;;5117284;27;20139;-68
2023/07/14 01:08:48;;;;;;;13.05;6.93;;;14.40;99.90;;;;;;5116872;27;20193;-69
2023/07/14 01:11:15;;;;;;;16.10;7.07;;;14.30;99.90;;;;;;5134659;27;20118;-69
2023/07/14 01:13:42;;;;;;;13.48;7.15;;;14.30;99.90;;;;;;5116390;27;20054;-68
2023/07/14 01:16:11;;;;;;;12.20;7.05;;;14.30;99.90;;;;;;5134499;27;20035;-68
2023/07/14 01:18:39;;;;;;;16.38;7.28;;;14.30;99.90;;;;;;5151053;27;20043;-68
2023/07/14 01:21:04;;;;;;;18.13;7.50;;;14.20;99.90;;;;;;5116317;28;20494;-68
2023/07/14 01:23:57;;;;;;;13.05;6.88;;;14.20;99.90;;;;;;5116566;28;20050;-69
2023/07/14 01:26:50;;;;;;;10.77;6.70;;;14.10;99.90;;;;;;5134980;27;20035;-69
2023/07/14 01:29:17;;;;;;;9.98;6.63;;;14.10;99.90;;;;;;5135248;28;20152;-68
2023/07/14 01:31:42;;;;;;;15.10;6.63;;;14.10;99.90;;;;;;5134395;28;20043;-68
2023/07/14 01:34:08;;;;;;;13.15;6.28;;;14.10;99.90;;;;;;5116175;28;20411;-69
2023/07/14 01:36:34;;;;;;;13.95;7.10;;;14.10;99.90;;;;;;5099452;28;20387;-69
2023/07/14 01:39:00;;;;;;;12.70;6.38;;;14.10;99.90;;;;;;5099170;28;20051;-69
2023/07/14 01:41:26;;;;;;;11.13;6.15;;;14.10;99.90;;;;;;5151120;27;20130;-69
2023/07/14 01:43:53;;;;;;;13.73;6.28;;;14.10;99.90;;;;;;5133256;28;20471;-69
2023/07/14 01:46:21;;;;;;;15.10;6.18;;;14.10;99.90;;;;;;5100223;28;20065;-69
2023/07/14 01:48:59;;;;;;;10.68;6.25;;;14.10;99.90;;;;;;5134185;28;20047;-69
2023/07/14 01:51:32;;;;;;;12.73;6.43;;;14.00;99.90;;;;;;5134454;28;20530;-68
2023/07/14 01:54:10;;;;;;;13.27;6.32;;;14.00;99.90;;;;;;5134288;28;20050;-70
2023/07/14 01:56:37;;;;;;;12.48;6.40;;;14.00;99.90;;;;;;5116655;28;20047;-68
2023/07/14 01:59:11;;;;;;;11.85;6.00;;;14.00;99.90;;;;;;5115658;28;20051;-69
2023/07/14 02:01:39;;;;;;;9.95;5.85;;;13.90;99.90;;;;;;5134761;28;20052;-70
2023/07/14 02:04:11;;;;;;;13.20;6.43;;;13.90;99.90;;;;;;5134076;28;20051;-69
2023/07/14 02:06:37;;;;;;;11.45;6.10;;;13.90;99.90;;;;;;5116119;28;20039;-69
2023/07/14 02:09:03;;;;;;;13.63;6.30;;;13.80;99.90;;;;;;5134025;28;20046;-69
2023/07/14 02:11:29;;;;;;;11.52;6.45;;;13.80;99.90;;;;;;5115830;28;20092;-69
2023/07/14 02:13:57;;;;;;;10.65;6.22;;;13.80;99.90;;;;;;5115829;28;20039;-70
2023/07/14 02:16:24;;;;;;;13.13;6.70;;;13.80;99.90;;;;;;5116445;28;20122;-70
2023/07/14 02:18:51;;;;;;;14.18;6.47;;;13.70;99.90;;;;;;5115789;28;20047;-69
2023/07/14 02:21:27;;;;;;;12.00;6.50;;;13.70;99.90;;;;;;5115688;28;20051;-69
2023/07/14 02:23:55;;;;;;;11.23;6.55;;;13.70;99.90;;;;;;5133956;28;20047;-69
2023/07/14 02:26:32;;;;;;;12.32;5.93;;;13.60;99.90;;;;;;5133919;28;20127;-68
2023/07/14 02:28:58;;;;;;;13.57;6.03;;;13.60;99.90;;;;;;5115866;28;20073;-69
2023/07/14 02:31:34;;;;;;;14.77;7.20;;;13.60;99.90;;;;;;5133965;28;20043;-69
2023/07/14 02:33:59;;;;;;;12.60;6.40;;;13.60;99.90;;;;;;5116193;27;20053;-70
2023/07/14 02:36:56;;;;;;;14.13;6.88;;;13.60;99.90;;;;;;5102363;27;20467;-69
2023/07/14 02:39:22;;;;;;;15.93;6.88;;;13.60;99.90;;;;;;5085782;27;20463;-68
2023/07/14 02:41:53;;;;;;;11.17;6.50;;;13.60;99.90;;;;;;5115343;28;20135;-69
2023/07/14 02:44:21;;;;;;;14.60;6.85;;;13.60;99.90;;;;;;5115606;28;20043;-69
2023/07/14 02:46:58;;;;;;;13.25;6.72;;;13.60;99.90;;;;;;5116832;28;20051;-70
2023/07/14 02:49:24;;;;;;;;;;;13.50;99.90;;;;;;5117305;28;20044;-68
2023/07/14 02:51:50;;;;;;;15.17;6.47;;;13.50;99.90;;;;;;5116779;27;19965;-67
2023/07/14 02:54:15;;;;;;;13.00;6.28;;;13.50;99.90;;;;;;5082587;28;20057;-69
2023/07/14 02:56:42;;;;;;;15.00;6.35;;;13.60;99.90;;;;;;5116579;28;20043;-69
2023/07/14 02:59:11;;;;;;;12.05;5.90;;;13.50;99.90;;;;;;5115927;28;20104;-69
2023/07/14 03:01:36;;;;;;;13.82;6.60;;;13.50;99.90;;;;;;5116506;27;20051;-68
2023/07/14 03:04:02;;;;;;;13.40;6.53;;;13.60;99.90;;;;;;5116402;28;20176;-69
2023/07/14 03:06:28;;;;;;;10.85;6.38;;;13.60;99.90;;;;;;5115521;28;20480;-69
2023/07/14 03:08:54;;;;;;;15.02;6.47;;;13.50;99.90;;;;;;5115463;28;20082;-68
2023/07/14 03:11:20;;;;;;;13.55;6.78;;;13.50;99.90;;;;;;5115548;28;20189;-69
2023/07/14 03:13:48;;;;;;;13.50;6.72;;;13.50;99.90;;;;;;5116271;28;20044;-68
2023/07/14 03:16:15;;;;;;;12.30;6.57;;;13.50;99.90;;;;;;5098068;28;20400;-68
2023/07/14 03:18:40;;;;;;;13.90;6.63;;;13.50;99.90;;;;;;5115212;28;20051;-68
2023/07/14 03:21:06;;;;;;;11.05;6.03;;;13.50;99.90;;;;;;5098361;28;20035;-69
2023/07/14 03:23:33;;;;;;;12.30;6.45;;;13.50;99.90;;;;;;5115160;28;20051;-69
2023/07/14 03:26:01;;;;;;;12.90;5.88;;;13.50;99.90;;;;;;5114946;28;20039;-68
2023/07/14 03:28:28;;;;;;;11.70;5.85;;;13.50;99.90;;;;;;5115032;28;20053;-69
2023/07/14 03:30:54;;;;;;;11.55;6.18;;;13.50;99.90;;;;;;5114548;28;20039;-69
2023/07/14 03:33:20;;;;;;;13.15;6.80;;;13.50;99.90;;;;;;5114623;28;20122;-69
2023/07/14 03:35:45;;;;;;;11.73;6.47;;;13.50;99.90;;;;;;5115815;28;20043;-69
2023/07/14 03:38:11;;;;;;;13.52;6.32;;;13.60;99.90;;;;;;5080968;28;20104;-69
2023/07/14 03:40:37;;;;;;;12.05;6.70;;;13.50;99.90;;;;;;5114554;28;20495;-69
2023/07/14 03:43:03;;;;;;;15.70;6.55;;;13.60;99.90;;;;;;5115717;28;20130;-70
2023/07/14 03:45:31;;;;;;;13.77;6.72;;;13.70;99.90;;;;;;5115611;28;20051;-69
2023/07/14 03:47:57;;;;;;;13.93;6.40;;;13.70;99.90;;;;;;5115753;28;20054;-68
2023/07/14 03:50:22;;;;;;;14.05;6.53;;;13.70;99.90;;;;;;5115619;28;20047;-69
2023/07/14 03:52:48;;;;;;;14.77;6.13;;;13.70;99.90;;;;;;5114323;28;20082;-69
2023/07/14 03:55:14;;;;;;;11.73;6.97;;;13.70;99.90;;;;;;5115727;27;20047;-69
2023/07/14 03:57:40;;;;;;;12.90;6.87;;;13.60;99.90;;;;;;5116007;28;20387;-69
2023/07/14 04:00:16;;;;;;;13.75;7.32;;;13.60;99.90;;;;;;5114473;28;20088;-70
2023/07/14 04:02:42;;;;;;;13.65;7.00;;;13.70;99.90;;;;;;5097714;28;20051;-69
2023/07/14 04:05:10;;;;;;;14.65;7.60;;;13.70;99.90;;;;;;5114101;28;20576;-70
2023/07/14 04:07:37;;;;;;;14.38;7.53;;;13.70;99.90;;;;;;5114236;28;20043;-69
2023/07/14 04:10:04;;;;;;;16.35;7.88;;;13.80;99.90;;;;;;5115223;28;20114;-69
2023/07/14 04:12:31;;;;;;;13.13;7.43;;;13.90;99.90;;;;;;5097586;28;20044;-69
2023/07/14 04:14:57;;;;;;;12.73;7.40;;;14.00;99.90;;;;;;5114158;28;20411;-69
2023/07/14 04:17:23;;;;;;;15.18;8.27;;;14.00;99.90;;;;;;5113693;28;20044;-69
2023/07/14 04:19:50;;;;;;;17.67;8.80;;;14.10;99.90;;;;;;5096856;28;20142;-68
2023/07/14 04:22:17;;;;;;;14.85;8.60;;;14.20;99.90;;;;;;5115514;28;20119;-68
2023/07/14 04:24:43;;;;;;;13.93;8.93;;;14.30;99.90;;;;;;5113915;28;20047;-68
2023/07/14 04:27:09;;;;;;;14.32;8.60;;;14.30;99.90;;;;;;5113569;28;20050;-70
2023/07/14 04:29:35;;;;;;;18.42;9.18;;;14.40;99.90;;;;;;5113496;28;20040;-69
2023/07/14 04:32:02;;;;;;;18.05;10.05;;;14.50;99.90;;;;;;5115601;28;20046;-69
2023/07/14 04:34:27;;;;;;;17.75;10.07;;;14.50;99.90;;;;;;5079933;28;20051;-68
2023/07/14 04:36:53;;;;;;;18.25;10.07;;;14.60;99.90;;;;;;5113337;28;20036;-69
2023/07/14 04:39:19;;;;;;;20.20;9.70;;;14.60;99.90;;;;;;5115022;28;20046;-68
2023/07/14 04:41:45;;;;;;;15.52;9.50;;;14.60;99.90;;;;;;5128550;27;20086;-68
2023/07/14 04:44:14;;;;;;;15.93;10.27;;;14.70;99.90;;;;;;5135061;27;20043;-70
2023/07/14 04:46:42;;;;;;;23.60;10.98;;;14.70;99.90;;;;;;5151373;27;20047;-69
2023/07/14 04:49:08;;;;;;;18.50;11.20;;;14.70;99.90;;;;;;5116905;27;20042;-69
2023/07/14 04:51:35;;;;;;;17.10;10.70;;;14.80;99.90;;;;;;5082984;27;20054;-68
2023/07/14 04:54:01;;;;;;;16.10;10.52;;;14.90;99.90;;;;;;5117100;27;20139;-69
2023/07/14 04:56:28;;;;;;;22.83;10.88;;;14.90;99.90;;;;;;5100573;27;20043;-69
2023/07/14 04:58:54;;;;;;;19.57;11.63;;;14.90;99.90;;;;;;5134456;27;20050;-69
2023/07/14 05:01:20;;;;;;;18.25;11.88;;;15.00;99.90;;;;;;5099363;27;20292;-69
2023/07/14 05:03:46;;;;;;;19.67;11.65;;;15.00;99.90;;;;;;5134712;27;20058;-68
2023/07/14 05:06:12;;;;;;;19.20;11.95;;;15.10;99.90;;;;;;5150954;27;20043;-69
2023/07/14 05:08:38;;;;;;;20.40;11.77;;;15.10;99.90;;;;;;5116767;27;20046;-69
2023/07/14 05:11:04;;;;;;;18.75;11.63;;;15.10;99.90;;;;;;5116442;27;20043;-68
2023/07/14 05:13:30;;;;;;;19.27;11.77;;;15.20;99.90;;;;;;5116308;27;20049;-69
2023/07/14 05:15:56;;;;;;;21.42;12.52;;;15.30;99.90;;;;;;5134558;27;20122;-68
2023/07/14 05:18:22;;;;;;;21.95;11.63;;;15.30;99.90;;;;;;5099508;27;20372;-71
2023/07/14 05:20:48;;;;;;;22.85;12.35;;;15.40;99.90;;;;;;5134592;27;20073;-69
2023/07/14 05:23:14;;;;;;;25.35;12.73;;;15.40;99.90;;;;;;5133531;27;20043;-69
2023/07/14 05:25:40;;;;;;;18.95;11.98;;;15.50;99.90;;;;;;5116082;27;20035;-68
2023/07/14 05:28:06;;;;;;;23.15;12.52;;;15.50;99.90;;;;;;5134415;27;20051;-68
2023/07/14 05:30:32;;;;;;;23.13;11.90;;;15.50;99.90;;;;;;5116225;28;20395;-68
2023/07/14 05:32:59;;;;;;;21.63;11.88;;;15.60;99.90;;;;;;5117056;28;20058;-69
2023/07/14 05:35:25;;;;;;;22.73;12.20;;;15.60;99.90;;;;;;5134250;28;20075;-69
2023/07/14 05:37:51;;;;;;;20.35;11.75;;;15.60;99.90;;;;;;5134574;28;20100;-68
2023/07/14 05:40:17;;;;;;;21.65;12.15;;;15.70;99.90;;;;;;5134177;28;20429;-69
2023/07/14 05:42:44;;;;;;;19.90;12.02;;;15.80;99.90;;;;;;5134441;28;20074;-69
2023/07/14 05:45:11;;;;;;;20.30;11.05;;;15.90;99.90;;;;;;5116099;28;20051;-68
2023/07/14 05:47:38;;;;;;;22.08;12.00;;;15.90;99.90;;;;;;5116017;28;20039;-69
2023/07/14 05:50:05;;;;;;;22.85;12.07;;;15.90;99.90;;;;;;5116605;27;20086;-69
2023/07/14 05:52:31;;;;;;;;;;;15.90;99.90;;;;;;5134830;28;20423;-69
2023/07/14 05:54:57;;;;;;;21.73;11.37;;;15.90;99.90;;;;;;5150440;27;20022;-69
2023/07/14 05:57:23;;;;;;;19.90;11.85;;;15.80;99.90;;;;;;5133977;28;20035;-70
2023/07/14 05:59:48;;;;;;;27.65;12.02;;;15.80;99.90;;;;;;5115851;28;20105;-68
2023/07/14 06:02:15;;;;;;;19.70;11.70;;;15.90;99.90;;;;;;5132956;27;20043;-69
2023/07/14 06:04:41;;;;;;;21.23;11.43;;;15.90;99.90;;;;;;5115497;28;20039;-69
2023/07/14 06:07:09;;;;;;;19.20;11.35;;;16.00;99.90;;;;;;5115972;28;20051;-69
2023/07/14 06:09:36;;;;;;;20.27;11.30;;;16.10;99.90;;;;;;5098541;27;20505;-70
2023/07/14 06:12:04;;;;;;;21.00;11.32;;;16.20;99.90;;;;;;5138128;27;20058;-69
2023/07/14 06:14:35;;;;;;;20.13;11.25;;;16.20;99.90;;;;;;5119664;27;20078;-69
2023/07/14 06:17:01;;;;;;;19.15;11.45;;;16.40;99.90;;;;;;5154196;27;20465;-69
2023/07/14 06:19:28;;;;;;;20.08;11.25;;;16.40;99.90;;;;;;5137946;27;20047;-70
2023/07/14 06:21:54;;;;;;;18.50;11.38;;;16.50;99.90;;;;;;5137915;27;20451;-71
2023/07/14 06:24:20;;;;;;;21.48;10.60;;;16.50;99.90;;;;;;5137765;27;20130;-71
2023/07/14 06:26:46;;;;;;;16.83;10.95;;;16.60;99.90;;;;;;5136332;27;20054;-71
2023/07/14 06:29:12;;;;;;;18.67;10.48;;;16.70;99.90;;;;;;5119436;27;20047;-70
2023/07/14 06:31:38;;;;;;;20.17;10.98;;;16.70;99.90;;;;;;5138085;27;20043;-70
2023/07/14 06:34:04;;;;;;;17.80;9.90;;;16.80;99.90;;;;;;5136810;27;20384;-70
2023/07/14 06:36:31;;;;;;;18.02;10.43;;;16.80;99.90;;;;;;5137432;27;20050;-70
2023/07/14 06:38:56;;;;;;;19.35;10.43;;;16.90;99.90;;;;;;5138338;27;20359;-72
2023/07/14 06:41:22;;;;;;;14.52;9.32;;;16.90;99.90;;;;;;5137657;27;20055;-71
2023/07/14 06:43:48;;;;;;;17.27;9.75;;;17.00;99.90;;;;;;5137646;27;20138;-70
2023/07/14 06:46:14;;;;;;;16.93;8.90;;;17.10;99.90;;;;;;5119043;27;20031;-71
2023/07/14 06:48:39;;;;;;;15.53;8.90;;;17.20;99.90;;;;;;5119908;27;20043;-70
2023/07/14 06:51:05;;;;;;;17.30;9.27;;;17.30;99.90;;;;;;5119077;27;20038;-71
2023/07/14 06:53:31;;;;;;;17.87;8.67;;;17.40;99.90;;;;;;5102421;27;20073;-72
2023/07/14 06:55:56;;;;;;;11.57;8.10;;;17.50;99.90;;;;;;5119090;27;20514;-70
2023/07/14 06:58:25;;;;;;;13.60;7.90;;;17.60;99.90;;;;;;5102394;27;20416;-72
2023/07/14 07:00:51;;;;;;;17.45;8.70;;;17.60;99.90;;;;;;5136937;27;20047;-70
2023/07/14 07:03:16;;;;;;;15.47;8.03;;;17.70;99.90;;;;;;5118644;27;20054;-71
2023/07/14 07:05:43;;;;;;;15.80;7.83;;;17.80;99.90;;;;;;5101161;27;20043;-71
2023/07/14 07:08:14;;;;;;;15.48;8.05;;;17.80;99.90;;;;;;5136895;27;20043;-71
2023/07/14 07:10:41;;;;;;;12.65;7.35;;;17.90;99.90;;;;;;5118506;27;20055;-72
2023/07/14 07:13:07;;;;;;;14.88;7.10;;;18.00;99.90;;;;;;5118839;27;20360;-72
2023/07/14 07:15:33;;;;;;;15.40;6.30;;;18.10;99.90;;;;;;5136524;27;20042;-71
2023/07/14 07:17:59;;;;;;;11.37;6.43;;;18.20;99.90;;;;;;5101908;27;20192;-73
2023/07/14 07:20:25;;;;;;;12.17;5.77;;;18.30;99.90;;;;;;5135931;27;20371;-72
2023/07/14 07:22:50;;;;;;;11.93;5.20;;;18.30;99.90;;;;;;5118340;27;20050;-72
2023/07/14 07:25:16;;;;;;;9.03;5.20;;;18.30;99.90;;;;;;5136633;27;20057;-72
2023/07/14 07:27:43;;;;;;;12.27;5.03;;;18.40;99.90;;;;;;5136389;27;20475;-72
2023/07/14 07:30:10;;;;;;;9.90;5.63;;;18.50;99.90;;;;;;5117919;27;20051;-71
2023/07/14 07:32:37;;;;;;;9.60;5.50;;;18.60;99.90;;;;;;5137072;27;20043;-72
2023/07/14 07:35:03;;;;;;;11.48;5.88;;;18.60;99.90;;;;;;5136307;27;20054;-71
2023/07/14 07:37:32;;;;;;;;;;;18.70;99.90;;;;;;5136664;27;20055;-70
2023/07/14 07:39:58;;;;;;;18.30;5.90;;;18.80;99.90;;;;;;5117803;27;20006;-70
2023/07/14 07:42:25;;;;;;;14.77;6.25;;;18.80;99.90;;;;;;5117500;27;20062;-71
2023/07/14 07:44:51;;;;;;;13.15;6.13;;;18.90;99.90;;;;;;5135859;27;20090;-70
2023/07/14 07:47:16;;;;;;;12.70;5.83;;;19.00;99.90;;;;;;5118217;27;20039;-70
2023/07/14 07:49:42;;;;;;;12.83;4.40;;;19.10;99.90;;;;;;5135966;27;20096;-71
2023/07/14 07:52:11;;;;;;;9.73;4.50;;;19.20;99.90;;;;;;5117359;27;20110;-72
2023/07/14 07:54:38;;;;;;;12.20;4.57;;;19.20;99.90;;;;;;5101204;27;20083;-72
2023/07/14 07:57:06;;;;;;;10.45;3.70;;;19.20;99.90;;;;;;5117324;27;20122;-72
2023/07/14 07:59:32;;;;;;;10.48;3.67;;;19.30;99.90;;;;;;5135513;27;20046;-72
2023/07/14 08:01:58;;;;;;;11.55;4.03;;;19.40;99.90;;;;;;5100255;27;20374;-71
2023/07/14 08:04:24;;;;;;;9.27;3.77;;;19.50;99.90;;;;;;5100176;27;20037;-72
2023/07/14 08:06:50;;;;;;;10.07;3.57;;;19.50;99.90;;;;;;5135379;27;20095;-73
2023/07/14 08:09:16;;;;;;;11.83;3.23;;;19.50;99.90;;;;;;5083415;27;20042;-73
2023/07/14 08:11:41;;;;;;;8.80;3.00;;;19.60;99.90;;;;;;5134301;27;20062;-72
2023/07/14 08:14:14;;;;;;;8.97;3.10;;;19.60;99.90;;;;;;5117202;27;20130;-71
2023/07/14 08:16:40;;;;;;;6.85;2.63;;;19.70;99.90;;;;;;5135256;27;20134;-71
2023/07/14 08:19:06;;;;;;;6.20;2.53;;;19.80;99.90;;;;;;5117187;27;20078;-72
2023/07/14 08:21:31;;;;;;;8.30;2.47;;;20.00;99.90;;;;;;5135489;27;20399;-70
2023/07/14 08:23:58;;;;;;;7.80;2.47;;;20.00;99.90;;;;;;5084251;27;20119;-72
2023/07/14 08:26:24;;;;;;;6.32;2.45;;;20.10;99.90;;;;;;5116911;27;20170;-71
2023/07/14 08:28:50;;;;;;;7.37;2.60;;;20.10;99.90;;;;;;5117429;27;20066;-72
2023/07/14 08:31:15;;;;;;;8.83;2.20;;;20.20;99.90;;;;;;5117516;27;20043;-72
2023/07/14 08:33:43;;;;;;;8.80;2.40;;;20.30;99.90;;;;;;5116232;27;20133;-72
2023/07/14 08:36:11;;;;;;;9.13;2.78;;;20.40;99.90;;;;;;5116730;27;20047;-71
2023/07/14 08:38:38;;;;;;;9.05;3.00;;;20.20;99.90;;;;;;5117189;27;20492;-72
2023/07/14 08:41:41;;;;;;;8.57;2.67;;;20.20;99.90;;;;;;5099724;27;20098;-72
2023/07/14 08:44:42;;;;;;;7.80;2.80;;;20.20;99.90;;;;;;5051523;28;20045;-72
2023/07/14 08:47:17;;;;;;;7.15;2.40;;;20.10;99.90;;;;;;5051396;28;20045;-74
2023/07/14 08:50:18;;;;;;;10.20;2.55;;;20.00;99.90;;;;;;5104838;27;20145;-71
2023/07/14 08:52:44;;;;;;;8.18;2.88;;;20.00;99.90;;;;;;5146531;27;20061;-69
2023/07/14 08:55:15;;;;;;;7.82;2.67;;;20.20;99.90;;;;;;5117465;27;20085;-70
2023/07/14 08:57:51;;;;;;;6.25;2.80;;;20.20;99.90;;;;;;5116921;27;20075;-72
2023/07/14 09:00:27;;;;;;;9.30;2.50;;;20.30;99.90;;;;;;5116934;27;20049;-70
2023/07/14 09:03:12;;;;;;;8.27;2.97;;;20.50;99.90;;;;;;5134616;27;20043;-72
2023/07/14 09:06:01;;;;;;;7.75;3.10;;;20.70;99.90;;;;;;5099489;27;20047;-71
2023/07/14 09:08:29;;;;;;;9.35;3.10;;;20.90;99.90;;;;;;5116680;27;20134;-71
2023/07/14 09:11:18;;;;;;;6.10;2.92;;;21.20;99.90;;;;;;5134494;27;20043;-72
2023/07/14 09:14:03;;;;;;;8.77;3.00;;;21.40;99.90;;;;;;5116412;27;20043;-71
2023/07/14 09:16:33;;;;;;;6.85;3.35;;;21.50;99.90;;;;;;5134825;27;20047;-71
2023/07/14 09:19:11;;;;;;;6.90;3.22;;;21.50;99.90;;;;;;5134001;27;20047;-71
2023/07/14 09:22:21;;;;;;;10.10;3.13;;;21.50;99.90;;;;;;5135035;27;20047;-71
2023/07/14 09:25:18;;;;;;;8.45;3.25;;;21.60;99.90;;;;;;5119497;28;20051;-71
2023/07/14 09:27:46;;;;;;;8.60;3.00;;;21.60;99.90;;;;;;5134914;27;20051;-71
2023/07/14 09:30:20;;;;;;;10.00;3.20;;;21.50;99.90;;;;;;5134215;27;20122;-72
2023/07/14 09:32:51;;;;;;;8.25;3.22;;;21.50;99.90;;;;;;5116310;28;20092;-70
2023/07/14 09:35:24;;;;;;;8.13;2.50;;;21.50;99.90;;;;;;5134091;28;20047;-72
2023/07/14 09:38:07;;;;;;;7.20;2.90;;;21.60;99.90;;;;;;5134170;28;20047;-70
2023/07/14 09:40:36;;;;;;;9.10;3.10;;;21.60;99.90;;;;;;5133385;28;20499;-74
2023/07/14 09:43:05;;;;;;;6.80;2.88;;;21.60;99.90;;;;;;5115817;28;20047;-72
2023/07/14 09:45:33;;;;;;;9.82;2.88;;;21.70;99.90;;;;;;5119679;27;20608;-72
2023/07/14 09:48:10;;;;;;;9.75;2.75;;;21.80;99.90;;;;;;5103119;27;20058;-73
2023/07/14 09:50:39;;;;;;;6.72;2.30;;;21.90;99.90;;;;;;5120241;27;20047;-72
2023/07/14 09:53:07;;;;;;;7.70;2.20;;;22.00;99.90;;;;;;5120069;27;20047;-72
2023/07/14 09:55:52;;;;;;;6.30;2.10;;;22.30;99.90;;;;;;5120942;27;20058;-72
2023/07/14 09:58:23;;;;;;;5.47;2.30;;;22.40;99.90;;;;;;5138942;27;20039;-74
2023/07/14 10:00:52;;;;;;;8.35;2.80;;;22.50;99.90;;;;;;5138894;27;20177;-72
2023/07/14 10:03:19;;;;;;;8.10;2.50;;;22.60;99.90;;;;;;5103330;27;20043;-73
2023/07/14 10:05:54;;;;;;;8.48;2.92;;;22.80;99.90;;;;;;5137843;27;20043;-72
2023/07/14 10:08:30;;;;;;;9.93;3.45;;;22.70;99.90;;;;;;5120460;27;20143;-73
2023/07/14 10:10:59;;;;;;;6.90;2.67;;;22.50;99.90;;;;;;5138238;27;20039;-72
2023/07/14 10:13:27;;;;;;;8.10;2.25;;;22.50;99.90;;;;;;5103675;27;20061;-72
2023/07/14 10:16:14;;;;;;;7.75;2.35;;;22.50;99.90;;;;;;5119803;27;20047;-73
2023/07/14 10:18:58;;;;;;;5.95;2.17;;;22.60;99.90;;;;;;5119943;27;20053;-74
2023/07/14 10:21:29;;;;;;;7.30;1.95;;;22.50;99.90;;;;;;5137878;27;20398;-73
2023/07/14 10:24:18;;;;;;;9.70;2.47;;;22.60;99.90;;;;;;5137971;27;20129;-72
2023/07/14 10:27:10;;;;;;;9.07;2.38;;;22.60;99.90;;;;;;5119957;27;20059;-72
2023/07/14 10:29:50;;;;;;;6.50;1.73;;;22.70;99.90;;;;;;5105829;27;20039;-74
2023/07/14 10:32:36;;;;;;;5.05;1.88;;;23.00;99.90;;;;;;5119365;27;20039;-72
2023/07/14 10:35:31;;;;;;;5.13;1.65;;;23.30;99.90;;;;;;5138343;27;20035;-74
2023/07/14 10:38:12;;;;;;;7.60;1.92;;;23.30;99.90;;;;;;5137637;27;20045;-71
2023/07/14 10:41:01;;;;;;;6.53;2.13;;;23.60;99.90;;;;;;5137319;27;20115;-74
2023/07/14 10:43:47;;;;;;;4.93;2.10;;;23.60;99.90;;;;;;5119265;27;20058;-73
2023/07/14 10:46:27;;;;;;;4.13;1.63;;;23.60;99.90;;;;;;5119413;27;20051;-71
2023/07/14 10:49:05;;;;;;;6.22;1.60;;;23.90;99.90;;;;;;5120138;27;20051;-74
2023/07/14 10:51:49;;;;;;;7.57;1.67;;;24.20;99.90;;;;;;5119747;27;20498;-74
2023/07/14 10:54:34;;;;;;;5.45;1.40;;;24.20;99.90;;;;;;5102400;27;20089;-73
2023/07/14 10:57:05;;;;;;;6.50;1.77;;;24.10;99.90;;;;;;5117938;27;20049;-72
2023/07/14 10:59:51;;;;;;;5.22;1.63;;;24.00;99.90;;;;;;5119316;27;20536;-73
2023/07/14 11:02:31;;;;;;;3.83;1.50;;;24.20;99.90;;;;;;5119771;27;20054;-72
2023/07/14 11:05:04;;;;;;;4.25;1.23;;;24.10;99.90;;;;;;5137643;27;20035;-73
2023/07/14 11:07:32;;;;;;;4.15;1.30;;;23.90;99.90;;;;;;5137526;27;20044;-73
2023/07/14 11:10:00;;;;;;;6.60;1.58;;;23.90;99.90;;;;;;5118700;27;20557;-72
2023/07/14 11:12:36;;;;;;;3.10;1.13;;;24.10;99.90;;;;;;5136936;27;20031;-73
2023/07/14 11:15:15;;;;;;;6.13;1.67;;;24.10;99.90;;;;;;5153517;27;20054;-76
2023/07/14 11:17:56;;;;;;;5.03;1.80;;;24.10;99.90;;;;;;5101504;27;20066;-73
2023/07/14 11:20:45;;;;;;;4.50;1.67;;;24.00;99.90;;;;;;5118669;27;20437;-74
2023/07/14 11:23:52;;;;;;;6.60;1.92;;;23.70;99.90;;;;;;5102143;27;20051;-75
2023/07/14 11:26:28;;;;;;;6.68;1.58;;;23.80;99.90;;;;;;5118857;27;20047;-73
2023/07/14 11:29:14;;;;;;;6.15;1.75;;;24.10;99.90;;;;;;5153507;27;20047;-74
2023/07/14 11:31:56;;;;;;;6.15;1.65;;;24.20;99.90;;;;;;5119498;27;20054;-73
2023/07/14 11:34:48;;;;;;;7.38;1.73;;;24.00;99.90;;;;;;5118787;27;20054;-74
2023/07/14 11:37:38;;;;;;;7.97;2.03;;;23.80;99.90;;;;;;5122042;27;20128;-73
2023/07/14 11:40:13;;;;;;;7.43;1.92;;;23.60;99.90;;;;;;5137759;27;20374;-74
2023/07/14 11:42:40;;;;;;;4.00;1.83;;;23.50;99.90;;;;;;5118678;27;20058;-73
2023/07/14 11:45:16;;;;;;;4.82;1.95;;;23.60;99.90;;;;;;5137198;27;20096;-73
2023/07/14 11:47:43;;;;;;;;;;;23.50;99.90;;;;;;5137875;27;20050;-74
2023/07/14 11:50:29;;;;;;;;;;;23.60;99.90;;;;;;5119729;27;19930;-75
2023/07/14 11:53:07;;;;;;;6.63;2.72;;;23.50;99.90;;;;;;5135743;27;19972;-74
2023/07/14 11:55:36;;;;;;;5.88;2.17;;;23.50;99.90;;;;;;5100879;27;20390;-73
2023/07/14 11:58:11;;;;;;;12.35;2.33;;;23.60;99.90;;;;;;5136483;27;20047;-76
2023/07/14 12:00:43;;;;;;;6.57;2.13;;;23.70;99.90;;;;;;5118668;27;20043;-73
2023/07/14 12:03:28;;;;;;;5.75;2.20;;;23.90;99.90;;;;;;5135901;27;20118;-72
2023/07/14 12:06:20;;;;;;;8.35;2.33;;;24.10;99.90;;;;;;5117820;27;20100;-73
2023/07/14 12:09:04;;;;;;;8.48;2.33;;;24.20;99.90;;;;;;5116975;27;20047;-75
2023/07/14 12:11:39;;;;;;;7.40;2.08;;;24.20;99.90;;;;;;5117199;27;20047;-73
2023/07/14 12:14:23;;;;;;;6.63;2.40;;;24.30;99.90;;;;;;5117374;27;20046;-74
2023/07/14 12:16:49;;;;;;;8.88;2.47;;;24.30;99.90;;;;;;5117380;27;20057;-74
2023/07/14 12:19:47;;;;;;;8.27;2.47;;;24.30;99.90;;;;;;5117455;27;20393;-74
2023/07/14 12:22:33;;;;;;;4.93;1.92;;;24.10;99.90;;;;;;5116728;27;20082;-74
2023/07/14 12:24:59;;;;;;;9.25;2.38;;;24.20;99.90;;;;;;5117063;27;20093;-75
2023/07/14 12:27:34;;;;;;;;;;;24.00;99.90;;;;;;5136002;27;20147;-74
2023/07/14 12:30:17;;;;;;;8.45;2.40;;;23.80;99.90;;;;;;5151820;27;19923;-74
2023/07/14 12:32:43;;;;;;;5.47;2.05;;;23.80;99.90;;;;;;5116755;27;20483;-73
2023/07/14 12:35:17;;;;;;;7.33;2.30;;;23.90;99.90;;;;;;5152245;27;20047;-74
2023/07/14 12:37:44;;;;;;;6.57;2.10;;;23.90;99.90;;;;;;5116571;27;20487;-74
2023/07/14 12:40:21;;;;;;;9.18;2.13;;;24.00;99.90;;;;;;5136099;27;20088;-74
2023/07/14 12:42:48;;;;;;;5.78;2.10;;;23.80;99.90;;;;;;5100463;27;20059;-73
2023/07/14 12:45:17;;;;;;;5.93;2.10;;;24.20;99.90;;;;;;5135214;27;20069;-74
2023/07/14 12:47:46;;;;;;;7.80;2.75;;;24.40;99.90;;;;;;5135183;27;20043;-74
2023/07/14 12:50:19;;;;;;;7.82;2.45;;;24.50;99.90;;;;;;5135113;27;20069;-73
2023/07/14 12:52:46;;;;;;;6.68;2.60;;;24.80;99.90;;;;;;5135640;27;20436;-73
2023/07/14 12:55:14;;;;;;;6.43;2.15;;;25.10;99.90;;;;;;5116577;27;20049;-74
2023/07/14 12:57:40;;;;;;;6.22;1.95;;;25.20;99.90;;;;;;5134741;27;20043;-73
2023/07/14 13:00:28;;;;;;;7.27;2.60;;;25.20;99.90;;;;;;5116765;27;20133;-72